EW8130 Weather Reports


time (UTC)temp
C
wind
direction
speed
KPH
gust
KPH
rain 1hr
cm
rain 24hr
cm
rain mn
cm
humidity
%
barometer
mb
20240723063030 21 212 0.0 1.6 0.00 4.47 0.00 92 994.9
20240723061526 21 209 0.0 1.6 0.00 4.47 0.00 92 994.9
20240723060029 21 217 0.0 1.6 0.00 4.47 0.00 91 995.0
20240723054526 22 187 0.0 4.8 0.00 4.47 0.00 92 995.1
20240723053032 21 181 0.0 3.2 0.00 4.47 0.00 92 994.8
20240723051536 22 200 0.0 4.8 0.00 4.47 0.00 92 994.9
20240723050019 21 139 0.0 1.6 0.00 4.47 0.00 92 994.7
20240723044522 22 175 0.0 3.2 0.00 4.47 4.47 92 995.0
20240723043020 22 188 0.0 9.7 0.00 4.47 4.47 92 995.2
20240723041518 22 118 0.0 1.6 0.00 4.47 4.47 92 994.9
20240723040018 22 119 0.0 1.6 0.00 4.47 4.47 91 995.0
20240723034517 22 165 0.0 1.6 0.00 4.47 4.47 91 995.1
20240723033017 22 97 0.0 1.6 0.00 4.47 4.47 91 995.1
20240723031517 22 160 0.0 1.6 0.00 4.47 4.47 91 995.2
20240723030021 22 173 0.0 1.6 0.00 4.47 4.47 90 994.9
20240723024516 22 170 0.0 1.6 0.00 4.47 4.47 91 994.8
20240723023019 22 219 0.0 1.6 0.00 4.47 4.47 90 994.6
20240723021535 22 183 0.0 1.6 0.00 4.47 4.47 91 994.5
20240723020023 22 195 0.0 3.2 0.00 4.47 4.47 91 994.3
20240723014514 22 142 0.0 3.2 0.00 4.52 4.47 92 994.1
20240723013013 22 146 0.0 1.6 0.00 4.52 4.47 92 994.0
20240723011530 22 126 0.0 4.8 0.00 4.52 4.47 92 993.9
20240723010013 22 143 0.0 8.0 0.00 4.52 4.47 92 994.0
20240723004515 23 125 0.0 1.6 0.00 4.52 4.47 91 994.0
20240723003012 23 154 0.0 1.6 0.00 4.52 4.47 91 994.1
20240723001512 23 100 0.0 1.6 0.00 4.52 4.47 90 994.3
20240723000021 23 86 0.0 8.0 0.00 4.52 4.47 90 994.1
20240722234511 23 44 1.6 12.9 0.00 4.52 4.47 90 994.2
20240722233028 23 122 0.0 16.1 0.00 4.52 4.47 90 994.0
20240722231509 23 124 4.8 22.5 0.00 4.52 4.47 89 993.7
20240722230015 24 77 4.8 19.3 0.00 4.52 4.47 89 993.4
20240722224513 24 110 1.6 14.5 0.00 4.52 4.47 89 993.6
20240722223012 23 122 0.0 16.1 0.00 4.52 4.47 90 993.8
20240722221508 24 89 1.6 12.9 0.00 4.52 4.47 90 994.0
20240722220009 23 118 0.0 1.6 0.03 4.52 4.47 90 993.5
20240722214522 23 148 0.0 1.6 0.13 4.52 4.47 90 993.2
20240722213023 22 89 0.0 3.2 0.28 4.52 4.47 90 993.2
20240722211504 22 62 0.0 3.2 0.89 4.52 4.47 93 993.7
20240722210007 21 95 0.0 1.6 1.93 4.50 4.45 93 993.7
20240722204511 21 124 0.0 11.3 3.73 4.39 4.34 93 993.7
20240722203003 21 66 0.0 1.6 3.73 4.22 4.17 91 993.8
20240722201502 22 97 0.0 1.6 3.12 3.61 3.56 90 994.1
20240722200002 22 339 8.0 17.7 2.01 2.49 2.44 88 993.8
20240722194502 27 192 9.7 32.2 0.15 0.71 0.58 78 994.2
20240722193111 31 290 0.0 9.7 0.00 0.58 0.43 65 993.8
20240722191559 31 302 0.0 1.6 0.00 0.58 0.43 67 993.9
20240722190055 30 271 0.0 8.0 0.00 0.58 0.43 68 994.1
20240722184551 29 276 0.0 0.0 0.00 0.64 0.43 72 994.2
20240722183053 28 359 0.0 4.8 0.00 0.64 0.43 74 994.4
20240722181546 28 295 0.0 1.6 0.00 0.64 0.43 75 994.4
20240722180103 28 213 0.0 8.0 0.00 0.64 0.43 75 994.5
20240722174546 28 248 0.0 1.6 0.00 0.64 0.43 74 994.6
20240722173045 28 161 0.0 3.2 0.00 0.64 0.43 74 994.7
20240722171543 27 226 0.0 1.6 0.00 0.64 0.43 75 994.9
20240722170056 28 206 0.0 1.6 0.00 0.64 0.43 75 995.2
20240722164543 27 49 0.0 1.6 0.00 0.64 0.43 80 995.3
20240722163035 26 102 0.0 1.6 0.00 0.64 0.43 82 995.4
20240722161533 26 94 0.0 3.2 0.00 0.64 0.43 83 995.4
20240722160037 26 78 0.0 1.6 0.00 0.64 0.43 83 995.6
20240722154531 25 43 0.0 1.6 0.00 0.64 0.43 84 995.3
20240722153030 25 78 0.0 3.2 0.00 0.64 0.43 84 995.4
20240722151528 25 29 0.0 1.6 0.00 0.64 0.43 85 995.4
20240722150027 25 39 0.0 3.2 0.00 0.64 0.43 85 995.3
20240722144527 25 308 0.0 1.6 0.00 0.64 0.43 85 995.4
20240722143026 25 44 0.0 8.0 0.00 0.64 0.43 87 995.4
20240722141527 23 8 0.0 8.0 0.00 0.64 0.43 90 995.3
20240722140022 23 23 1.6 14.5 0.00 0.64 0.43 92 995.3
20240722134521 22 312 0.0 4.8 0.00 0.81 0.43 95 995.2
20240722133020 21 40 0.0 1.6 0.00 0.81 0.43 94 995.1
20240722131522 21 330 0.0 0.0 0.00 0.81 0.43 94 994.9
20240722130018 21 128 0.0 0.0 0.00 0.81 0.43 93 994.8
20240722124518 21 266 0.0 0.0 0.10 0.89 0.43 93 994.8
20240722123027 20 245 0.0 0.0 0.10 0.89 0.43 93 994.6
20240722121517 20 264 0.0 0.0 0.10 0.89 0.43 92 994.5
20240722120015 21 297 0.0 16.1 0.10 0.89 0.43 90 994.5
20240722114512 21 318 0.0 1.6 0.00 0.79 0.33 86 994.7
20240722113009 22 289 0.0 3.2 0.00 0.79 0.33 86 994.4
20240722111508 22 272 0.0 17.7 0.03 0.79 0.33 93 994.3
20240722110006 22 82 0.0 1.6 0.28 0.79 0.33 95 994.0
20240722104506 22 60 0.0 9.7 0.33 0.79 0.33 94 993.9
20240722103005 22 31 0.0 1.6 0.33 0.79 0.33 94 993.8
20240722101504 22 24 0.0 3.2 0.30 0.76 0.30 93 993.7
20240722100002 23 66 0.0 3.2 0.05 0.51 0.05 91 994.0
20240722094502 23 75 0.0 3.2 0.00 0.46 0.00 91 994.0
20240722093001 23 4 0.0 3.2 0.00 0.46 0.00 91 994.1
20240722091501 23 14 0.0 3.2 0.00 0.46 0.00 90 994.1
20240722090100 23 37 0.0 3.2 0.00 0.46 0.00 90 993.9
20240722084600 23 43 0.0 1.6 0.00 0.46 0.00 89 993.8
20240722083105 23 125 0.0 1.6 0.00 0.46 0.00 90 993.6
20240722081600 22 33 0.0 1.6 0.00 0.46 0.00 91 993.8
20240722080058 23 25 0.0 1.6 0.00 0.46 0.00 89 993.6
20240722074557 23 354 0.0 1.6 0.00 0.46 0.00 89 993.6
20240722073117 23 31 0.0 1.6 0.00 0.46 0.00 89 993.7
20240722071554 23 38 0.0 1.6 0.00 0.46 0.00 88 993.9
20240722070051 23 52 0.0 3.2 0.00 0.46 0.00 88 994.0
20240722064547 23 354 0.0 1.6 0.00 0.46 0.00 88 994.0